sensor_id;sensor_type;location;lat;lon;timestamp;temperature;humidity
21734;DHT22;11029;47.820;10.534;2024-03-06T00:00:03;3.20;86.30
21734;DHT22;11029;47.820;10.534;2024-03-06T00:02:49;3.20;86.00
21734;DHT22;11029;47.820;10.534;2024-03-06T00:05:35;3.20;85.90
21734;DHT22;11029;47.820;10.534;2024-03-06T00:08:20;3.10;84.50
21734;DHT22;11029;47.820;10.534;2024-03-06T00:11:06;3.00;84.90
21734;DHT22;11029;47.820;10.534;2024-03-06T00:13:52;3.00;84.20
21734;DHT22;11029;47.820;10.534;2024-03-06T00:16:38;2.90;84.30
21734;DHT22;11029;47.820;10.534;2024-03-06T00:19:23;2.90;84.90
21734;DHT22;11029;47.820;10.534;2024-03-06T00:22:09;2.80;83.80
21734;DHT22;11029;47.820;10.534;2024-03-06T00:24:55;2.70;84.80
21734;DHT22;11029;47.820;10.534;2024-03-06T00:27:40;2.70;84.80
21734;DHT22;11029;47.820;10.534;2024-03-06T00:30:26;2.60;84.20
21734;DHT22;11029;47.820;10.534;2024-03-06T00:33:11;2.50;85.20
21734;DHT22;11029;47.820;10.534;2024-03-06T00:35:57;2.50;85.10
21734;DHT22;11029;47.820;10.534;2024-03-06T00:38:43;2.40;85.80
21734;DHT22;11029;47.820;10.534;2024-03-06T00:41:29;2.40;85.70
21734;DHT22;11029;47.820;10.534;2024-03-06T00:44:15;2.40;85.70
21734;DHT22;11029;47.820;10.534;2024-03-06T00:47:00;2.40;85.70
21734;DHT22;11029;47.820;10.534;2024-03-06T00:49:46;2.40;85.60
21734;DHT22;11029;47.820;10.534;2024-03-06T00:52:32;2.30;85.50
21734;DHT22;11029;47.820;10.534;2024-03-06T00:55:18;2.30;85.60
21734;DHT22;11029;47.820;10.534;2024-03-06T00:58:05;2.30;85.80
21734;DHT22;11029;47.820;10.534;2024-03-06T01:00:52;2.30;86.00
21734;DHT22;11029;47.820;10.534;2024-03-06T01:03:38;2.20;86.20
21734;DHT22;11029;47.820;10.534;2024-03-06T01:06:24;2.20;86.30
21734;DHT22;11029;47.820;10.534;2024-03-06T01:09:10;2.20;86.30
21734;DHT22;11029;47.820;10.534;2024-03-06T01:11:55;2.20;85.90
21734;DHT22;11029;47.820;10.534;2024-03-06T01:14:41;2.20;85.30
21734;DHT22;11029;47.820;10.534;2024-03-06T01:17:27;2.10;85.60
21734;DHT22;11029;47.820;10.534;2024-03-06T01:20:13;2.00;86.10
21734;DHT22;11029;47.820;10.534;2024-03-06T01:22:59;2.00;86.30
21734;DHT22;11029;47.820;10.534;2024-03-06T01:25:45;2.00;85.90
21734;DHT22;11029;47.820;10.534;2024-03-06T01:28:31;1.90;86.10
21734;DHT22;11029;47.820;10.534;2024-03-06T01:31:16;1.90;86.50
21734;DHT22;11029;47.820;10.534;2024-03-06T01:34:02;1.90;85.70
21734;DHT22;11029;47.820;10.534;2024-03-06T01:36:48;1.90;85.60
21734;DHT22;11029;47.820;10.534;2024-03-06T01:39:33;1.80;85.80
21734;DHT22;11029;47.820;10.534;2024-03-06T01:42:21;1.80;85.90
21734;DHT22;11029;47.820;10.534;2024-03-06T01:45:07;1.80;85.40
21734;DHT22;11029;47.820;10.534;2024-03-06T01:47:53;1.80;86.90
21734;DHT22;11029;47.820;10.534;2024-03-06T01:50:40;1.90;86.30
21734;DHT22;11029;47.820;10.534;2024-03-06T01:53:28;1.90;85.70
21734;DHT22;11029;47.820;10.534;2024-03-06T01:56:15;1.80;85.30
21734;DHT22;11029;47.820;10.534;2024-03-06T01:59:03;1.80;85.30
21734;DHT22;11029;47.820;10.534;2024-03-06T02:01:52;1.70;85.90
21734;DHT22;11029;47.820;10.534;2024-03-06T02:04:39;1.70;86.10
21734;DHT22;11029;47.820;10.534;2024-03-06T02:07:25;1.70;86.30
21734;DHT22;11029;47.820;10.534;2024-03-06T02:10:10;1.70;86.20
21734;DHT22;11029;47.820;10.534;2024-03-06T02:12:57;1.70;86.00
21734;DHT22;11029;47.820;10.534;2024-03-06T02:15:44;1.80;86.00
21734;DHT22;11029;47.820;10.534;2024-03-06T02:18:31;1.80;85.50
21734;DHT22;11029;47.820;10.534;2024-03-06T02:21:16;1.60;85.80
21734;DHT22;11029;47.820;10.534;2024-03-06T02:24:02;1.60;86.50
21734;DHT22;11029;47.820;10.534;2024-03-06T02:26:47;1.60;86.30
21734;DHT22;11029;47.820;10.534;2024-03-06T02:29:33;1.60;86.80
21734;DHT22;11029;47.820;10.534;2024-03-06T02:32:18;1.60;86.30
21734;DHT22;11029;47.820;10.534;2024-03-06T02:35:04;1.60;86.60
21734;DHT22;11029;47.820;10.534;2024-03-06T02:37:54;1.60;86.60
21734;DHT22;11029;47.820;10.534;2024-03-06T02:40:43;1.60;86.60
21734;DHT22;11029;47.820;10.534;2024-03-06T02:43:29;1.60;86.80
21734;DHT22;11029;47.820;10.534;2024-03-06T02:46:16;1.60;86.10
21734;DHT22;11029;47.820;10.534;2024-03-06T02:49:02;1.50;86.30
21734;DHT22;11029;47.820;10.534;2024-03-06T02:51:47;1.50;86.60
21734;DHT22;11029;47.820;10.534;2024-03-06T02:54:33;1.50;85.90
21734;DHT22;11029;47.820;10.534;2024-03-06T02:57:19;1.40;87.10
21734;DHT22;11029;47.820;10.534;2024-03-06T03:00:05;1.40;86.60
21734;DHT22;11029;47.820;10.534;2024-03-06T03:02:54;1.40;86.70
21734;DHT22;11029;47.820;10.534;2024-03-06T03:05:40;1.40;86.90
21734;DHT22;11029;47.820;10.534;2024-03-06T03:08:25;1.40;87.10
21734;DHT22;11029;47.820;10.534;2024-03-06T03:11:11;1.40;86.90
21734;DHT22;11029;47.820;10.534;2024-03-06T03:13:57;1.30;87.30
21734;DHT22;11029;47.820;10.534;2024-03-06T03:16:43;1.30;87.30
21734;DHT22;11029;47.820;10.534;2024-03-06T03:19:29;1.20;87.30
21734;DHT22;11029;47.820;10.534;2024-03-06T03:22:14;1.10;87.80
21734;DHT22;11029;47.820;10.534;2024-03-06T03:25:00;1.00;88.00
21734;DHT22;11029;47.820;10.534;2024-03-06T03:27:46;1.00;88.50
21734;DHT22;11029;47.820;10.534;2024-03-06T03:30:32;1.00;88.90
21734;DHT22;11029;47.820;10.534;2024-03-06T03:33:18;1.10;88.40
21734;DHT22;11029;47.820;10.534;2024-03-06T03:36:04;1.10;88.50
21734;DHT22;11029;47.820;10.534;2024-03-06T03:38:52;1.00;88.40
21734;DHT22;11029;47.820;10.534;2024-03-06T03:41:38;1.10;88.50
21734;DHT22;11029;47.820;10.534;2024-03-06T03:44:23;1.20;89.00
21734;DHT22;11029;47.820;10.534;2024-03-06T03:47:09;1.20;88.30
21734;DHT22;11029;47.820;10.534;2024-03-06T03:49:56;1.20;87.40
21734;DHT22;11029;47.820;10.534;2024-03-06T03:52:54;1.20;88.40
21734;DHT22;11029;47.820;10.534;2024-03-06T03:55:40;1.20;88.20
21734;DHT22;11029;47.820;10.534;2024-03-06T03:58:25;1.30;87.70
21734;DHT22;11029;47.820;10.534;2024-03-06T04:01:11;1.20;87.30
21734;DHT22;11029;47.820;10.534;2024-03-06T04:03:57;1.30;87.80
21734;DHT22;11029;47.820;10.534;2024-03-06T04:06:42;1.30;87.20
21734;DHT22;11029;47.820;10.534;2024-03-06T04:09:28;1.40;87.30
21734;DHT22;11029;47.820;10.534;2024-03-06T04:12:13;1.40;87.10
21734;DHT22;11029;47.820;10.534;2024-03-06T04:14:59;1.50;87.30
21734;DHT22;11029;47.820;10.534;2024-03-06T04:17:44;1.50;86.10
21734;DHT22;11029;47.820;10.534;2024-03-06T04:20:30;1.60;85.80
21734;DHT22;11029;47.820;10.534;2024-03-06T04:23:15;1.50;85.60
21734;DHT22;11029;47.820;10.534;2024-03-06T04:26:02;1.50;86.00
21734;DHT22;11029;47.820;10.534;2024-03-06T04:28:49;1.40;86.60
21734;DHT22;11029;47.820;10.534;2024-03-06T04:31:35;1.40;86.20
21734;DHT22;11029;47.820;10.534;2024-03-06T04:34:20;1.40;86.90
21734;DHT22;11029;47.820;10.534;2024-03-06T04:37:08;1.40;86.50
21734;DHT22;11029;47.820;10.534;2024-03-06T04:39:54;1.40;85.60
21734;DHT22;11029;47.820;10.534;2024-03-06T04:42:39;1.40;86.80
21734;DHT22;11029;47.820;10.534;2024-03-06T04:45:25;1.40;85.90
21734;DHT22;11029;47.820;10.534;2024-03-06T04:48:10;1.40;86.70
21734;DHT22;11029;47.820;10.534;2024-03-06T04:50:56;1.50;86.00
21734;DHT22;11029;47.820;10.534;2024-03-06T04:53:42;1.50;86.10
21734;DHT22;11029;47.820;10.534;2024-03-06T04:56:27;1.50;86.40
21734;DHT22;11029;47.820;10.534;2024-03-06T04:59:13;1.60;85.00
21734;DHT22;11029;47.820;10.534;2024-03-06T05:02:00;1.50;85.50
21734;DHT22;11029;47.820;10.534;2024-03-06T05:04:47;1.50;86.20
21734;DHT22;11029;47.820;10.534;2024-03-06T05:07:50;1.50;85.10
21734;DHT22;11029;47.820;10.534;2024-03-06T05:10:54;1.40;86.10
21734;DHT22;11029;47.820;10.534;2024-03-06T05:14:01;1.40;86.30
21734;DHT22;11029;47.820;10.534;2024-03-06T05:17:05;1.30;86.10
21734;DHT22;11029;47.820;10.534;2024-03-06T05:20:08;1.30;86.70
21734;DHT22;11029;47.820;10.534;2024-03-06T05:23:12;1.30;86.90
21734;DHT22;11029;47.820;10.534;2024-03-06T05:26:17;1.20;87.10
21734;DHT22;11029;47.820;10.534;2024-03-06T05:29:20;1.20;87.90
21734;DHT22;11029;47.820;10.534;2024-03-06T05:32:24;1.20;87.80
21734;DHT22;11029;47.820;10.534;2024-03-06T05:35:27;1.10;87.80
21734;DHT22;11029;47.820;10.534;2024-03-06T05:38:31;1.00;88.00
21734;DHT22;11029;47.820;10.534;2024-03-06T05:41:35;1.00;88.40
21734;DHT22;11029;47.820;10.534;2024-03-06T05:44:38;0.90;88.90
21734;DHT22;11029;47.820;10.534;2024-03-06T05:47:42;0.90;89.00
21734;DHT22;11029;47.820;10.534;2024-03-06T05:50:45;0.80;89.20
21734;DHT22;11029;47.820;10.534;2024-03-06T05:53:49;0.80;89.40
21734;DHT22;11029;47.820;10.534;2024-03-06T05:56:52;0.90;89.60
21734;DHT22;11029;47.820;10.534;2024-03-06T05:59:56;0.90;89.70
21734;DHT22;11029;47.820;10.534;2024-03-06T06:02:42;0.90;89.40
21734;DHT22;11029;47.820;10.534;2024-03-06T06:05:28;0.90;89.60
21734;DHT22;11029;47.820;10.534;2024-03-06T06:08:13;1.00;89.20
21734;DHT22;11029;47.820;10.534;2024-03-06T06:10:59;0.90;89.30
21734;DHT22;11029;47.820;10.534;2024-03-06T06:13:45;1.00;89.40
21734;DHT22;11029;47.820;10.534;2024-03-06T06:16:38;1.10;89.50
21734;DHT22;11029;47.820;10.534;2024-03-06T06:19:25;1.20;89.00
21734;DHT22;11029;47.820;10.534;2024-03-06T06:22:10;1.20;88.10
21734;DHT22;11029;47.820;10.534;2024-03-06T06:24:57;1.10;88.70
21734;DHT22;11029;47.820;10.534;2024-03-06T06:27:42;1.20;88.70
21734;DHT22;11029;47.820;10.534;2024-03-06T06:30:28;1.20;88.50
21734;DHT22;11029;47.820;10.534;2024-03-06T06:33:14;1.20;88.30
21734;DHT22;11029;47.820;10.534;2024-03-06T06:36:00;1.10;88.50
21734;DHT22;11029;47.820;10.534;2024-03-06T06:38:47;1.20;88.90
21734;DHT22;11029;47.820;10.534;2024-03-06T06:41:32;1.20;88.50
21734;DHT22;11029;47.820;10.534;2024-03-06T06:44:18;1.10;88.30
21734;DHT22;11029;47.820;10.534;2024-03-06T06:47:04;1.10;88.40
21734;DHT22;11029;47.820;10.534;2024-03-06T06:49:50;1.10;88.20
21734;DHT22;11029;47.820;10.534;2024-03-06T06:52:36;1.10;88.40
21734;DHT22;11029;47.820;10.534;2024-03-06T06:55:21;1.20;88.20
21734;DHT22;11029;47.820;10.534;2024-03-06T06:58:09;1.20;87.90
21734;DHT22;11029;47.820;10.534;2024-03-06T07:00:55;1.20;88.00
21734;DHT22;11029;47.820;10.534;2024-03-06T07:03:40;1.10;87.70
21734;DHT22;11029;47.820;10.534;2024-03-06T07:06:26;1.00;88.30
21734;DHT22;11029;47.820;10.534;2024-03-06T07:09:12;1.00;88.90
21734;DHT22;11029;47.820;10.534;2024-03-06T07:12:00;1.00;89.50
21734;DHT22;11029;47.820;10.534;2024-03-06T07:14:46;1.00;89.40
21734;DHT22;11029;47.820;10.534;2024-03-06T07:17:31;1.00;89.20
21734;DHT22;11029;47.820;10.534;2024-03-06T07:20:17;1.00;89.20
21734;DHT22;11029;47.820;10.534;2024-03-06T07:23:04;1.00;88.80
21734;DHT22;11029;47.820;10.534;2024-03-06T07:25:50;1.10;89.30
21734;DHT22;11029;47.820;10.534;2024-03-06T07:28:36;1.10;89.20
21734;DHT22;11029;47.820;10.534;2024-03-06T07:31:25;1.10;89.20
21734;DHT22;11029;47.820;10.534;2024-03-06T07:34:11;1.20;89.10
21734;DHT22;11029;47.820;10.534;2024-03-06T07:36:58;1.10;89.10
21734;DHT22;11029;47.820;10.534;2024-03-06T07:39:48;1.20;89.10
21734;DHT22;11029;47.820;10.534;2024-03-06T07:42:37;1.30;89.10
21734;DHT22;11029;47.820;10.534;2024-03-06T07:45:24;1.40;88.10
21734;DHT22;11029;47.820;10.534;2024-03-06T07:48:10;1.40;88.00
21734;DHT22;11029;47.820;10.534;2024-03-06T07:50:55;1.50;87.70
21734;DHT22;11029;47.820;10.534;2024-03-06T07:53:41;1.50;87.70
21734;DHT22;11029;47.820;10.534;2024-03-06T07:56:27;1.40;86.90
21734;DHT22;11029;47.820;10.534;2024-03-06T07:59:14;1.40;87.30
21734;DHT22;11029;47.820;10.534;2024-03-06T08:02:01;1.40;87.70
21734;DHT22;11029;47.820;10.534;2024-03-06T08:04:48;1.40;87.30
21734;DHT22;11029;47.820;10.534;2024-03-06T08:07:33;1.30;87.80
21734;DHT22;11029;47.820;10.534;2024-03-06T08:10:19;1.40;87.70
21734;DHT22;11029;47.820;10.534;2024-03-06T08:13:05;1.40;87.50
21734;DHT22;11029;47.820;10.534;2024-03-06T08:15:50;1.50;87.50
21734;DHT22;11029;47.820;10.534;2024-03-06T08:18:36;1.60;87.00
21734;DHT22;11029;47.820;10.534;2024-03-06T08:21:22;1.60;86.40
21734;DHT22;11029;47.820;10.534;2024-03-06T08:24:08;1.50;86.30
21734;DHT22;11029;47.820;10.534;2024-03-06T08:26:53;1.50;86.60
21734;DHT22;11029;47.820;10.534;2024-03-06T08:29:40;1.50;86.40
21734;DHT22;11029;47.820;10.534;2024-03-06T08:32:26;1.30;88.10
21734;DHT22;11029;47.820;10.534;2024-03-06T08:35:13;1.40;87.80
21734;DHT22;11029;47.820;10.534;2024-03-06T08:38:04;1.30;87.50
21734;DHT22;11029;47.820;10.534;2024-03-06T08:40:51;1.20;87.90
21734;DHT22;11029;47.820;10.534;2024-03-06T08:43:37;1.10;88.50
21734;DHT22;11029;47.820;10.534;2024-03-06T08:46:23;1.30;88.90
21734;DHT22;11029;47.820;10.534;2024-03-06T08:49:09;1.30;88.80
21734;DHT22;11029;47.820;10.534;2024-03-06T08:51:55;1.30;88.30
21734;DHT22;11029;47.820;10.534;2024-03-06T08:54:42;1.30;88.40
21734;DHT22;11029;47.820;10.534;2024-03-06T08:57:28;1.30;88.20
21734;DHT22;11029;47.820;10.534;2024-03-06T09:00:16;1.30;88.10
21734;DHT22;11029;47.820;10.534;2024-03-06T09:03:03;1.30;88.80
21734;DHT22;11029;47.820;10.534;2024-03-06T09:05:48;1.40;88.70
21734;DHT22;11029;47.820;10.534;2024-03-06T09:08:34;1.40;89.00
21734;DHT22;11029;47.820;10.534;2024-03-06T09:11:19;1.40;88.70
21734;DHT22;11029;47.820;10.534;2024-03-06T09:14:05;1.50;88.40
21734;DHT22;11029;47.820;10.534;2024-03-06T09:16:51;1.50;88.20
21734;DHT22;11029;47.820;10.534;2024-03-06T09:19:37;1.40;87.80
21734;DHT22;11029;47.820;10.534;2024-03-06T09:22:27;1.40;88.10
21734;DHT22;11029;47.820;10.534;2024-03-06T09:25:12;1.40;88.30
21734;DHT22;11029;47.820;10.534;2024-03-06T09:28:01;1.40;88.70
21734;DHT22;11029;47.820;10.534;2024-03-06T09:30:50;1.40;88.30
21734;DHT22;11029;47.820;10.534;2024-03-06T09:33:35;1.30;88.40
21734;DHT22;11029;47.820;10.534;2024-03-06T09:36:21;1.30;89.20
21734;DHT22;11029;47.820;10.534;2024-03-06T09:39:06;1.30;89.00
21734;DHT22;11029;47.820;10.534;2024-03-06T09:41:53;1.20;89.40
21734;DHT22;11029;47.820;10.534;2024-03-06T09:44:40;1.30;88.90
21734;DHT22;11029;47.820;10.534;2024-03-06T09:47:28;1.40;89.40
21734;DHT22;11029;47.820;10.534;2024-03-06T09:50:17;1.40;88.20
21734;DHT22;11029;47.820;10.534;2024-03-06T09:53:08;1.40;88.90
21734;DHT22;11029;47.820;10.534;2024-03-06T09:55:56;1.40;88.40
21734;DHT22;11029;47.820;10.534;2024-03-06T09:58:43;1.40;88.20
21734;DHT22;11029;47.820;10.534;2024-03-06T10:01:30;1.40;89.00
21734;DHT22;11029;47.820;10.534;2024-03-06T10:04:20;1.40;88.40
21734;DHT22;11029;47.820;10.534;2024-03-06T10:07:12;1.40;88.90
21734;DHT22;11029;47.820;10.534;2024-03-06T10:09:58;1.50;88.10
21734;DHT22;11029;47.820;10.534;2024-03-06T10:12:47;1.50;87.40
21734;DHT22;11029;47.820;10.534;2024-03-06T10:15:33;1.60;87.80
21734;DHT22;11029;47.820;10.534;2024-03-06T10:18:21;1.70;87.50
21734;DHT22;11029;47.820;10.534;2024-03-06T10:21:08;1.60;87.60
21734;DHT22;11029;47.820;10.534;2024-03-06T10:23:57;1.70;87.40
21734;DHT22;11029;47.820;10.534;2024-03-06T10:26:43;1.70;86.80
21734;DHT22;11029;47.820;10.534;2024-03-06T10:29:29;1.60;87.80
21734;DHT22;11029;47.820;10.534;2024-03-06T10:32:17;1.60;87.10
21734;DHT22;11029;47.820;10.534;2024-03-06T10:35:07;1.40;87.40
21734;DHT22;11029;47.820;10.534;2024-03-06T10:37:54;1.60;88.20
21734;DHT22;11029;47.820;10.534;2024-03-06T10:40:42;1.70;88.60
21734;DHT22;11029;47.820;10.534;2024-03-06T10:43:29;1.90;87.30
21734;DHT22;11029;47.820;10.534;2024-03-06T10:46:16;2.10;87.20
21734;DHT22;11029;47.820;10.534;2024-03-06T10:49:05;2.30;86.60
21734;DHT22;11029;47.820;10.534;2024-03-06T10:51:52;2.30;84.30
21734;DHT22;11029;47.820;10.534;2024-03-06T10:54:39;2.30;84.40
21734;DHT22;11029;47.820;10.534;2024-03-06T10:57:27;2.00;84.90
21734;DHT22;11029;47.820;10.534;2024-03-06T11:00:15;1.90;84.90
21734;DHT22;11029;47.820;10.534;2024-03-06T11:03:09;2.00;85.70
21734;DHT22;11029;47.820;10.534;2024-03-06T11:05:57;2.00;85.10
21734;DHT22;11029;47.820;10.534;2024-03-06T11:08:46;1.90;85.90
21734;DHT22;11029;47.820;10.534;2024-03-06T11:11:47;1.90;85.60
21734;DHT22;11029;47.820;10.534;2024-03-06T11:14:39;2.20;86.60
21734;DHT22;11029;47.820;10.534;2024-03-06T11:17:25;2.40;85.30
21734;DHT22;11029;47.820;10.534;2024-03-06T11:20:17;2.60;84.00
21734;DHT22;11029;47.820;10.534;2024-03-06T11:23:03;2.70;83.60
21734;DHT22;11029;47.820;10.534;2024-03-06T11:25:59;2.50;82.10
21734;DHT22;11029;47.820;10.534;2024-03-06T11:28:48;2.30;83.40
21734;DHT22;11029;47.820;10.534;2024-03-06T11:31:36;2.30;84.10
21734;DHT22;11029;47.820;10.534;2024-03-06T11:34:22;2.20;84.70
21734;DHT22;11029;47.820;10.534;2024-03-06T11:37:08;2.40;83.60
21734;DHT22;11029;47.820;10.534;2024-03-06T11:39:59;2.80;84.80
21734;DHT22;11029;47.820;10.534;2024-03-06T11:42:46;2.90;81.10
21734;DHT22;11029;47.820;10.534;2024-03-06T11:45:44;2.70;81.40
21734;DHT22;11029;47.820;10.534;2024-03-06T11:48:30;2.70;81.30
21734;DHT22;11029;47.820;10.534;2024-03-06T11:51:16;2.60;83.00
21734;DHT22;11029;47.820;10.534;2024-03-06T11:54:05;2.60;81.20
21734;DHT22;11029;47.820;10.534;2024-03-06T11:56:53;2.40;82.40
21734;DHT22;11029;47.820;10.534;2024-03-06T11:59:40;2.50;84.30
21734;DHT22;11029;47.820;10.534;2024-03-06T12:02:26;2.50;83.50
21734;DHT22;11029;47.820;10.534;2024-03-06T12:05:12;2.60;82.20
21734;DHT22;11029;47.820;10.534;2024-03-06T12:07:58;2.50;81.80
21734;DHT22;11029;47.820;10.534;2024-03-06T12:10:45;2.50;84.10
21734;DHT22;11029;47.820;10.534;2024-03-06T12:13:33;2.80;83.60
21734;DHT22;11029;47.820;10.534;2024-03-06T12:16:19;2.90;81.00
21734;DHT22;11029;47.820;10.534;2024-03-06T12:19:05;3.00;81.60
21734;DHT22;11029;47.820;10.534;2024-03-06T12:21:51;3.10;79.20
21734;DHT22;11029;47.820;10.534;2024-03-06T12:24:39;3.00;80.60
21734;DHT22;11029;47.820;10.534;2024-03-06T12:27:24;3.30;79.70
21734;DHT22;11029;47.820;10.534;2024-03-06T12:30:10;3.50;80.10
21734;DHT22;11029;47.820;10.534;2024-03-06T12:32:58;3.70;79.60
21734;DHT22;11029;47.820;10.534;2024-03-06T12:35:45;3.80;77.10
21734;DHT22;11029;47.820;10.534;2024-03-06T12:38:32;3.80;77.90
21734;DHT22;11029;47.820;10.534;2024-03-06T12:41:18;4.00;78.00
21734;DHT22;11029;47.820;10.534;2024-03-06T12:44:05;4.00;75.80
21734;DHT22;11029;47.820;10.534;2024-03-06T12:46:52;4.00;76.40
21734;DHT22;11029;47.820;10.534;2024-03-06T12:49:37;4.20;77.70
21734;DHT22;11029;47.820;10.534;2024-03-06T12:52:23;4.30;76.70
21734;DHT22;11029;47.820;10.534;2024-03-06T12:55:08;4.40;76.60
21734;DHT22;11029;47.820;10.534;2024-03-06T12:57:54;4.40;76.30
21734;DHT22;11029;47.820;10.534;2024-03-06T13:00:40;4.30;76.50
21734;DHT22;11029;47.820;10.534;2024-03-06T13:03:26;4.40;76.30
21734;DHT22;11029;47.820;10.534;2024-03-06T13:06:12;4.40;75.70
21734;DHT22;11029;47.820;10.534;2024-03-06T13:08:57;4.10;76.40
21734;DHT22;11029;47.820;10.534;2024-03-06T13:11:43;4.10;75.50
21734;DHT22;11029;47.820;10.534;2024-03-06T13:14:29;3.90;75.70
21734;DHT22;11029;47.820;10.534;2024-03-06T13:17:15;3.70;77.00
21734;DHT22;11029;47.820;10.534;2024-03-06T13:20:01;3.40;77.60
21734;DHT22;11029;47.820;10.534;2024-03-06T13:22:47;3.30;79.10
21734;DHT22;11029;47.820;10.534;2024-03-06T13:25:33;3.00;80.10
21734;DHT22;11029;47.820;10.534;2024-03-06T13:28:18;2.90;81.10
21734;DHT22;11029;47.820;10.534;2024-03-06T13:31:06;2.90;80.10
21734;DHT22;11029;47.820;10.534;2024-03-06T13:33:52;2.80;81.20
21734;DHT22;11029;47.820;10.534;2024-03-06T13:36:38;2.80;81.20
21734;DHT22;11029;47.820;10.534;2024-03-06T13:39:24;2.70;81.70
21734;DHT22;11029;47.820;10.534;2024-03-06T13:42:09;2.70;82.40
21734;DHT22;11029;47.820;10.534;2024-03-06T13:44:55;2.70;81.20
21734;DHT22;11029;47.820;10.534;2024-03-06T13:47:43;2.60;81.70
21734;DHT22;11029;47.820;10.534;2024-03-06T13:50:29;2.50;82.00
21734;DHT22;11029;47.820;10.534;2024-03-06T13:53:16;2.50;82.90
21734;DHT22;11029;47.820;10.534;2024-03-06T13:56:02;2.40;82.90
21734;DHT22;11029;47.820;10.534;2024-03-06T13:58:48;2.20;83.10
21734;DHT22;11029;47.820;10.534;2024-03-06T14:01:34;2.00;84.10
21734;DHT22;11029;47.820;10.534;2024-03-06T14:04:20;1.80;86.10
21734;DHT22;11029;47.820;10.534;2024-03-06T14:07:05;2.00;85.30
21734;DHT22;11029;47.820;10.534;2024-03-06T14:09:52;2.00;85.40
21734;DHT22;11029;47.820;10.534;2024-03-06T14:12:38;1.90;85.10
21734;DHT22;11029;47.820;10.534;2024-03-06T14:15:25;2.10;85.90
21734;DHT22;11029;47.820;10.534;2024-03-06T14:18:11;2.20;85.20
21734;DHT22;11029;47.820;10.534;2024-03-06T14:20:57;2.20;84.30
21734;DHT22;11029;47.820;10.534;2024-03-06T14:23:42;2.00;84.90
21734;DHT22;11029;47.820;10.534;2024-03-06T14:26:33;2.10;84.90
21734;DHT22;11029;47.820;10.534;2024-03-06T14:29:19;1.90;85.60
21734;DHT22;11029;47.820;10.534;2024-03-06T14:32:05;1.90;86.00
21734;DHT22;11029;47.820;10.534;2024-03-06T14:34:51;2.00;85.60
21734;DHT22;11029;47.820;10.534;2024-03-06T14:37:37;2.10;85.20
21734;DHT22;11029;47.820;10.534;2024-03-06T14:40:24;2.20;83.80
21734;DHT22;11029;47.820;10.534;2024-03-06T14:43:09;2.20;84.20
21734;DHT22;11029;47.820;10.534;2024-03-06T14:45:56;2.20;82.90
21734;DHT22;11029;47.820;10.534;2024-03-06T14:48:41;2.10;83.10
21734;DHT22;11029;47.820;10.534;2024-03-06T14:51:26;2.10;84.50
21734;DHT22;11029;47.820;10.534;2024-03-06T14:54:13;2.10;84.70
21734;DHT22;11029;47.820;10.534;2024-03-06T14:56:59;2.30;84.40
21734;DHT22;11029;47.820;10.534;2024-03-06T14:59:46;2.40;83.30
21734;DHT22;11029;47.820;10.534;2024-03-06T15:02:31;2.40;83.00
21734;DHT22;11029;47.820;10.534;2024-03-06T15:05:17;2.40;83.10
21734;DHT22;11029;47.820;10.534;2024-03-06T15:08:03;2.40;83.00
21734;DHT22;11029;47.820;10.534;2024-03-06T15:10:52;2.50;83.40
21734;DHT22;11029;47.820;10.534;2024-03-06T15:13:39;2.50;82.40
21734;DHT22;11029;47.820;10.534;2024-03-06T15:16:25;2.60;82.50
21734;DHT22;11029;47.820;10.534;2024-03-06T15:19:10;2.50;81.80
21734;DHT22;11029;47.820;10.534;2024-03-06T15:21:56;2.50;82.60
21734;DHT22;11029;47.820;10.534;2024-03-06T15:24:44;2.50;82.30
21734;DHT22;11029;47.820;10.534;2024-03-06T15:27:30;2.50;82.20
21734;DHT22;11029;47.820;10.534;2024-03-06T15:30:15;2.50;81.00
21734;DHT22;11029;47.820;10.534;2024-03-06T15:33:03;2.40;81.50
21734;DHT22;11029;47.820;10.534;2024-03-06T15:35:49;2.40;81.90
21734;DHT22;11029;47.820;10.534;2024-03-06T15:38:35;2.40;82.50
21734;DHT22;11029;47.820;10.534;2024-03-06T15:41:21;2.40;82.70
21734;DHT22;11029;47.820;10.534;2024-03-06T15:44:06;2.50;82.50
21734;DHT22;11029;47.820;10.534;2024-03-06T15:46:54;2.60;82.10
21734;DHT22;11029;47.820;10.534;2024-03-06T15:49:54;2.60;82.00
21734;DHT22;11029;47.820;10.534;2024-03-06T15:52:40;2.60;81.30
21734;DHT22;11029;47.820;10.534;2024-03-06T15:55:26;2.60;81.20
21734;DHT22;11029;47.820;10.534;2024-03-06T15:58:12;2.60;81.60
21734;DHT22;11029;47.820;10.534;2024-03-06T16:00:57;2.50;81.20
21734;DHT22;11029;47.820;10.534;2024-03-06T16:03:47;2.50;81.70
21734;DHT22;11029;47.820;10.534;2024-03-06T16:06:37;2.50;81.70
21734;DHT22;11029;47.820;10.534;2024-03-06T16:09:25;2.50;82.10
21734;DHT22;11029;47.820;10.534;2024-03-06T16:12:11;2.60;81.80
21734;DHT22;11029;47.820;10.534;2024-03-06T16:14:57;2.50;81.70
21734;DHT22;11029;47.820;10.534;2024-03-06T16:17:42;2.50;81.90
21734;DHT22;11029;47.820;10.534;2024-03-06T16:20:28;2.50;81.60
21734;DHT22;11029;47.820;10.534;2024-03-06T16:23:14;2.50;81.10
21734;DHT22;11029;47.820;10.534;2024-03-06T16:25:59;2.20;81.90
21734;DHT22;11029;47.820;10.534;2024-03-06T16:28:45;2.30;82.80
21734;DHT22;11029;47.820;10.534;2024-03-06T16:31:32;2.30;82.70
21734;DHT22;11029;47.820;10.534;2024-03-06T16:34:18;2.30;82.70
21734;DHT22;11029;47.820;10.534;2024-03-06T16:37:08;2.30;82.20
21734;DHT22;11029;47.820;10.534;2024-03-06T16:39:54;2.30;82.40
21734;DHT22;11029;47.820;10.534;2024-03-06T16:42:40;2.40;82.30
21734;DHT22;11029;47.820;10.534;2024-03-06T16:45:25;2.40;82.20
21734;DHT22;11029;47.820;10.534;2024-03-06T16:48:11;2.40;81.50
21734;DHT22;11029;47.820;10.534;2024-03-06T16:50:57;2.30;81.70
21734;DHT22;11029;47.820;10.534;2024-03-06T16:53:42;2.20;81.90
21734;DHT22;11029;47.820;10.534;2024-03-06T16:56:29;2.20;82.50
21734;DHT22;11029;47.820;10.534;2024-03-06T16:59:15;2.20;82.70
21734;DHT22;11029;47.820;10.534;2024-03-06T17:02:01;2.20;82.50
21734;DHT22;11029;47.820;10.534;2024-03-06T17:04:46;2.20;82.80
21734;DHT22;11029;47.820;10.534;2024-03-06T17:07:32;2.20;82.80
21734;DHT22;11029;47.820;10.534;2024-03-06T17:10:18;2.20;82.30
21734;DHT22;11029;47.820;10.534;2024-03-06T17:13:04;2.20;82.30
21734;DHT22;11029;47.820;10.534;2024-03-06T17:15:50;2.20;82.60
21734;DHT22;11029;47.820;10.534;2024-03-06T17:18:37;2.20;82.60
21734;DHT22;11029;47.820;10.534;2024-03-06T17:21:23;2.20;82.20
21734;DHT22;11029;47.820;10.534;2024-03-06T17:24:08;2.10;82.20
21734;DHT22;11029;47.820;10.534;2024-03-06T17:26:54;2.00;82.80
21734;DHT22;11029;47.820;10.534;2024-03-06T17:29:39;2.00;83.30
21734;DHT22;11029;47.820;10.534;2024-03-06T17:32:25;2.00;83.10
21734;DHT22;11029;47.820;10.534;2024-03-06T17:35:11;2.00;82.80